createdAt,value
2018-09-11T00:01:45.141Z,99660.59
2018-09-11T00:04:12.337Z,99665.91
2018-09-11T00:06:39.528Z,99667.44
2018-09-11T00:09:09.472Z,99666.09
2018-09-11T00:11:36.767Z,99668.06
2018-09-11T00:14:03.951Z,99671.40
2018-09-11T00:16:31.172Z,99670.13
2018-09-11T00:18:58.335Z,99672.50
2018-09-11T00:21:25.561Z,99681.56
2018-09-11T00:23:52.750Z,99678.16
2018-09-11T00:26:19.997Z,99681.86
2018-09-11T00:28:47.157Z,99679.80
2018-09-11T00:31:14.337Z,99678.56
2018-09-11T00:33:41.574Z,99687.22
2018-09-11T00:36:08.777Z,99679.63
2018-09-11T00:38:36.026Z,99675.48
2018-09-11T00:41:03.209Z,99674.68
2018-09-11T00:43:30.434Z,99675.19
2018-09-11T00:45:57.598Z,99672.11
2018-09-11T00:48:24.830Z,99669.16
2018-09-11T00:50:51.998Z,99667.06
2018-09-11T00:53:19.282Z,99642.31
2018-09-11T00:55:46.437Z,99674.63
2018-09-11T00:58:13.582Z,99674.08
2018-09-11T01:00:40.779Z,99674.50
2018-09-11T01:03:08.108Z,99677.92
2018-09-11T01:05:35.364Z,99683.08
2018-09-11T01:08:02.535Z,99690.45
2018-09-11T01:10:29.719Z,99690.02
2018-09-11T01:12:56.900Z,99689.75
2018-09-11T01:15:24.050Z,99687.64
2018-09-11T01:17:51.254Z,99693.20
2018-09-11T01:20:18.536Z,99692.34
2018-09-11T01:22:45.751Z,99686.07
2018-09-11T01:25:12.991Z,99694.72
2018-09-11T01:27:40.132Z,99682.81
2018-09-11T01:30:07.462Z,99679.27
2018-09-11T01:32:34.937Z,99684.87
2018-09-11T01:35:02.160Z,99678.39
2018-09-11T01:37:29.313Z,99682.88
2018-09-11T01:39:56.541Z,99682.16
2018-09-11T01:42:23.714Z,99677.13
2018-09-11T01:44:50.870Z,99678.77
2018-09-11T01:47:18.064Z,99673.69
2018-09-11T01:49:45.246Z,99674.86
2018-09-11T01:52:12.422Z,99673.98
2018-09-11T01:54:39.597Z,99679.39
2018-09-11T01:57:06.776Z,99680.11
2018-09-11T01:59:34.002Z,99681.30
2018-09-11T02:02:01.213Z,99692.40
2018-09-11T02:04:28.377Z,99687.56
2018-09-11T02:06:55.523Z,99692.64
2018-09-11T02:09:22.734Z,99705.17
2018-09-11T02:11:49.918Z,99701.98
2018-09-11T02:14:17.054Z,99708.94
2018-09-11T02:16:44.234Z,99712.64
2018-09-11T02:19:11.519Z,99714.90
2018-09-11T02:21:38.702Z,99714.70
2018-09-11T02:24:06.013Z,99719.03
2018-09-11T02:26:33.470Z,99723.27
2018-09-11T02:29:00.598Z,99728.25
2018-09-11T02:31:27.749Z,99722.11
2018-09-11T02:33:54.978Z,99729.56
2018-09-11T02:36:22.190Z,99727.02
2018-09-11T02:38:49.345Z,99731.02
2018-09-11T02:41:16.574Z,99729.50
2018-09-11T02:43:43.780Z,99729.83
2018-09-11T02:46:11.018Z,99735.16
2018-09-11T02:48:38.282Z,99734.63
2018-09-11T02:51:05.803Z,99733.30
2018-09-11T02:53:33.145Z,99729.84
2018-09-11T02:56:00.313Z,99731.66
2018-09-11T02:58:27.556Z,99734.05
2018-09-11T03:00:54.806Z,99737.02
2018-09-11T03:03:22.096Z,99738.84
2018-09-11T03:05:49.423Z,99738.64
2018-09-11T03:08:16.600Z,99742.94
2018-09-11T03:10:43.799Z,99741.33
2018-09-11T03:13:11.627Z,99745.30
2018-09-11T03:15:38.862Z,99748.78
2018-09-11T03:18:06.295Z,99745.33
2018-09-11T03:20:33.485Z,99752.28
2018-09-11T03:23:00.623Z,99750.75
2018-09-11T03:25:27.830Z,99748.36
2018-09-11T03:27:55.043Z,99752.13
2018-09-11T03:30:22.206Z,99756.93
2018-09-11T03:32:49.348Z,99760.42
2018-09-11T03:35:16.533Z,99764.17
2018-09-11T03:37:43.700Z,99759.42
2018-09-11T03:40:11.487Z,99765.86
2018-09-11T03:42:38.644Z,99756.55
2018-09-11T03:45:05.838Z,99751.22
2018-09-11T03:47:32.982Z,99751.98
2018-09-11T03:50:00.172Z,99752.22
2018-09-11T03:52:27.345Z,99749.83
2018-09-11T03:54:54.512Z,99743.75
2018-09-11T03:57:21.647Z,99744.84
2018-09-11T03:59:48.825Z,99744.61
2018-09-11T04:02:16.042Z,99746.76
2018-09-11T04:04:43.222Z,99739.30
2018-09-11T04:07:10.501Z,99740.91
2018-09-11T04:09:37.677Z,99742.53
2018-09-11T04:12:04.924Z,99747.29
2018-09-11T04:14:32.070Z,99740.63
2018-09-11T04:16:59.269Z,99742.25
2018-09-11T04:19:26.430Z,99739.34
2018-09-11T04:21:53.569Z,99744.94
2018-09-11T04:24:20.698Z,99746.80
2018-09-11T04:26:47.967Z,99744.95
2018-09-11T04:29:15.125Z,99745.50
2018-09-11T04:31:42.353Z,99739.66
2018-09-11T04:34:09.634Z,99738.85
2018-09-11T04:36:36.915Z,99608.93
2018-09-11T04:39:06.335Z,99743.12
2018-09-11T04:41:33.685Z,99747.11
2018-09-11T04:44:00.897Z,99757.75
2018-09-11T04:46:28.048Z,99760.91
2018-09-11T04:48:55.279Z,99763.32
2018-09-11T04:51:22.594Z,99771.30
2018-09-11T04:53:49.946Z,99769.41
2018-09-11T04:56:17.130Z,99774.20
2018-09-11T04:58:44.361Z,99774.77
2018-09-11T05:01:11.617Z,99780.63
2018-09-11T05:03:38.789Z,99777.93
2018-09-11T05:06:06.409Z,99785.38
2018-09-11T05:08:33.580Z,99784.58
2018-09-11T05:11:00.824Z,99780.34
2018-09-11T05:13:28.055Z,99775.55
2018-09-11T05:15:55.256Z,99776.09
2018-09-11T05:18:22.640Z,99777.42
2018-09-11T05:20:49.771Z,99781.14
2018-09-11T05:23:17.224Z,99783.27
2018-09-11T05:25:44.722Z,99784.33
2018-09-11T05:28:11.976Z,99783.80
2018-09-11T05:30:39.127Z,99782.20
2018-09-11T05:33:06.570Z,99784.33
2018-09-11T05:35:33.720Z,99790.45
2018-09-11T05:38:02.025Z,99781.14
2018-09-11T05:40:29.297Z,99790.17
2018-09-11T05:42:56.454Z,99793.37
2018-09-11T05:45:23.735Z,99791.73
2018-09-11T05:47:50.858Z,99793.05
2018-09-11T05:50:17.997Z,99788.25
2018-09-11T05:52:45.260Z,99796.52
2018-09-11T05:55:12.658Z,99806.89
2018-09-11T05:57:39.813Z,99809.55
2018-09-11T06:00:07.351Z,99801.04
2018-09-11T06:02:34.666Z,99805.31
2018-09-11T06:05:02.161Z,99809.83
2018-09-11T06:07:29.374Z,99804.78
2018-09-11T06:09:56.557Z,99805.59
2018-09-11T06:12:23.770Z,99809.58
2018-09-11T06:14:51.029Z,99807.16
2018-09-11T06:17:18.217Z,99805.31
2018-09-11T06:19:45.681Z,99797.05
2018-09-11T06:22:12.934Z,99797.85
2018-09-11T06:24:40.171Z,99790.92
2018-09-11T06:27:07.594Z,99794.14
2018-09-11T06:29:35.499Z,99793.82
2018-09-11T06:32:02.734Z,99794.59
2018-09-11T06:34:29.967Z,99803.61
2018-09-11T06:36:57.685Z,99794.28
2018-09-11T06:39:25.025Z,99799.34
2018-09-11T06:41:52.352Z,99802.50
2018-09-11T06:44:19.545Z,99792.61
2018-09-11T06:46:47.622Z,99804.05
2018-09-11T06:49:16.362Z,99798.16
2018-09-11T06:51:44.344Z,99795.70
2018-09-11T06:54:11.795Z,99793.28
2018-09-11T06:56:39.127Z,99790.86
2018-09-11T06:59:06.329Z,99797.50
2018-09-11T07:01:33.480Z,99800.33
2018-09-11T07:04:00.737Z,99802.12
2018-09-11T07:06:28.009Z,99798.08
2018-09-11T07:08:55.340Z,99795.30
2018-09-11T07:11:22.585Z,99800.31
2018-09-11T07:13:50.096Z,99802.05
2018-09-11T07:16:17.273Z,99804.56
2018-09-11T07:18:44.498Z,99803.67
2018-09-11T07:21:11.745Z,99807.33
2018-09-11T07:23:38.928Z,99806.16
2018-09-11T07:26:06.643Z,99809.25
2018-09-11T07:28:33.912Z,99807.75
2018-09-11T07:31:01.121Z,99813.44
2018-09-11T07:33:28.424Z,99815.42
2018-09-11T07:35:55.942Z,99814.95
2018-09-11T07:38:24.437Z,99809.16
2018-09-11T07:40:51.567Z,99810.55
2018-09-11T07:43:18.817Z,99812.29
2018-09-11T07:45:45.970Z,99809.78
2018-09-11T07:48:13.284Z,99806.67
2018-09-11T07:50:40.496Z,99811.24
2018-09-11T07:53:08.218Z,99804.98
2018-09-11T07:55:35.378Z,99806.70
2018-09-11T07:58:02.772Z,99808.31
2018-09-11T08:00:29.869Z,99804.59
2018-09-11T08:02:57.012Z,99805.53
2018-09-11T08:05:24.333Z,99811.44
2018-09-11T08:07:51.593Z,99814.25
2018-09-11T08:10:18.769Z,99811.71
2018-09-11T08:12:45.987Z,99808.58
2018-09-11T08:15:13.783Z,99811.03
2018-09-11T08:17:41.547Z,99815.42
2018-09-11T08:20:08.849Z,99811.00
2018-09-11T08:22:36.083Z,99814.56
2018-09-11T08:25:03.389Z,99822.59
2018-09-11T08:27:31.138Z,99823.47
2018-09-11T08:29:58.331Z,99827.91
2018-09-11T08:32:25.553Z,99822.27
2018-09-11T08:34:52.797Z,99825.67
2018-09-11T08:37:19.994Z,99826.77
2018-09-11T08:39:47.222Z,99825.56
2018-09-11T08:42:14.451Z,99825.56
2018-09-11T08:44:41.942Z,99821.86
2018-09-11T08:47:09.323Z,99826.37
2018-09-11T08:49:37.392Z,99830.83
2018-09-11T08:52:06.879Z,99827.97
2018-09-11T08:54:33.998Z,99831.09
2018-09-11T08:57:01.327Z,99835.41
2018-09-11T08:59:28.563Z,99833.14
2018-09-11T09:01:56.602Z,99830.90
2018-09-11T09:04:23.753Z,99835.66
2018-09-11T09:06:51.032Z,99831.41
2018-09-11T09:09:18.171Z,99832.59
2018-09-11T09:11:45.673Z,99828.12
2018-09-11T09:14:12.954Z,99834.59
2018-09-11T09:16:40.210Z,99825.75
2018-09-11T09:19:07.440Z,99828.52
2018-09-11T09:21:34.865Z,99826.45
2018-09-11T09:24:02.273Z,99825.19
2018-09-11T09:26:30.214Z,99826.06
2018-09-11T09:28:57.945Z,99824.42
2018-09-11T09:31:25.116Z,99821.66
2018-09-11T09:33:52.311Z,99815.45
2018-09-11T09:36:19.553Z,99806.98
2018-09-11T09:38:46.799Z,99807.99
2018-09-11T09:41:14.688Z,99805.94
2018-09-11T09:43:42.293Z,99808.33
2018-09-11T09:46:09.542Z,99807.34
2018-09-11T09:48:36.741Z,99805.97
2018-09-11T09:51:04.338Z,99812.86
2018-09-11T09:53:31.589Z,99807.16
2018-09-11T09:55:58.846Z,99806.69
2018-09-11T09:58:26.186Z,99811.13
2018-09-11T10:01:58.854Z,99804.32
2018-09-11T10:04:26.085Z,99798.84
2018-09-11T10:06:53.330Z,99799.19
2018-09-11T10:09:20.667Z,99794.77
2018-09-11T10:11:48.049Z,99795.53
2018-09-11T10:14:15.281Z,99796.09
2018-09-11T10:16:42.579Z,99791.59
2018-09-11T10:19:09.985Z,99790.97
2018-09-11T10:21:37.491Z,99789.73
2018-09-11T10:24:05.153Z,99789.73
2018-09-11T10:26:32.558Z,99788.47
2018-09-11T10:29:00.842Z,99781.72
2018-09-11T10:31:28.028Z,99785.48
2018-09-11T10:33:55.263Z,99779.39
2018-09-11T10:36:22.426Z,99780.78
2018-09-11T10:38:49.743Z,99783.52
2018-09-11T10:41:16.934Z,99788.22
2018-09-11T10:43:44.109Z,99782.57
2018-09-11T10:46:11.297Z,99781.98
2018-09-11T10:48:38.476Z,99778.80
2018-09-11T10:51:05.854Z,99771.39
2018-09-11T10:53:34.187Z,99766.45
2018-09-11T10:56:01.535Z,99764.74
2018-09-11T10:58:28.701Z,99759.36
2018-09-11T11:00:57.039Z,99758.27
2018-09-11T11:03:24.553Z,99751.34
2018-09-11T11:05:52.783Z,99747.38
2018-09-11T11:08:20.149Z,99741.72
2018-09-11T11:10:47.712Z,99746.14
2018-09-11T11:13:15.101Z,99742.99
2018-09-11T11:15:42.518Z,99739.74
2018-09-11T11:18:09.783Z,99732.33
2018-09-11T11:20:37.085Z,99738.64
2018-09-11T11:23:04.392Z,99717.85
2018-09-11T11:25:31.609Z,99718.44
2018-09-11T11:27:58.791Z,99713.81
2018-09-11T11:30:28.058Z,99713.14
2018-09-11T11:32:55.882Z,99715.84
2018-09-11T11:35:23.102Z,99723.17
2018-09-11T11:37:50.407Z,99717.52
2018-09-11T11:40:17.671Z,99721.94
2018-09-11T11:42:45.043Z,99711.32
2018-09-11T11:45:12.450Z,99707.23
2018-09-11T11:47:39.664Z,99710.63
2018-09-11T11:50:06.794Z,99717.38
2018-09-11T11:52:35.104Z,99720.75
2018-09-11T11:55:02.369Z,99719.11
2018-09-11T11:57:29.552Z,99712.22
2018-09-11T11:59:56.752Z,99719.80
2018-09-11T12:02:24.050Z,99718.44
2018-09-11T12:04:51.179Z,99714.87
2018-09-11T12:07:18.401Z,99707.70
2018-09-11T12:09:45.633Z,99705.78
2018-09-11T12:12:12.904Z,99698.32
2018-09-11T12:14:40.207Z,99704.22
2018-09-11T12:17:07.593Z,99696.09
2018-09-11T12:19:35.022Z,99688.78
2018-09-11T12:22:02.176Z,99689.39
2018-09-11T12:24:29.730Z,99687.00
2018-09-11T12:26:57.009Z,99682.97
2018-09-11T12:29:24.199Z,99685.38
2018-09-11T12:31:51.402Z,99683.84
2018-09-11T12:34:18.600Z,99685.25
2018-09-11T12:36:45.885Z,99689.40
2018-09-11T12:39:13.113Z,99683.27
2018-09-11T12:41:40.322Z,99687.57
2018-09-11T12:44:07.607Z,99686.15
2018-09-11T12:46:35.162Z,99676.70
2018-09-11T12:49:01.934Z,99680.00
2018-09-11T12:51:29.086Z,99669.56
2018-09-11T12:53:57.279Z,99681.95
2018-09-11T12:56:24.665Z,99678.90
2018-09-11T12:58:51.930Z,99665.98
2018-09-11T13:01:19.332Z,99662.78
2018-09-11T13:03:46.698Z,99666.59
2018-09-11T13:06:14.339Z,99665.98
2018-09-11T13:08:43.383Z,99658.25
2018-09-11T13:11:10.747Z,99652.88
2018-09-11T13:13:38.153Z,99675.54
2018-09-11T13:16:05.407Z,99657.39
2018-09-11T13:18:32.564Z,99662.66
2018-09-11T13:20:59.990Z,99652.71
2018-09-11T13:23:27.115Z,99651.94
2018-09-11T13:25:54.370Z,99661.91
2018-09-11T13:28:22.408Z,99656.17
2018-09-11T13:30:50.740Z,99642.73
2018-09-11T13:33:18.013Z,99636.66
2018-09-11T13:35:45.209Z,99645.73
2018-09-11T13:38:12.417Z,99642.86
2018-09-11T13:40:39.615Z,99640.88
2018-09-11T13:43:06.917Z,99638.30
2018-09-11T13:45:34.994Z,99646.77
2018-09-11T13:48:11.055Z,99649.87
2018-09-11T13:50:39.106Z,99650.40
2018-09-11T13:53:07.213Z,99651.24
2018-09-11T13:55:34.406Z,99647.27
2018-09-11T13:58:01.597Z,99645.47
2018-09-11T14:00:28.775Z,99641.77
2018-09-11T14:02:56.586Z,99639.20
2018-09-11T14:05:23.892Z,99635.44
2018-09-11T14:07:51.114Z,99624.80
2018-09-11T14:10:18.490Z,99615.39
2018-09-11T14:12:45.778Z,99623.08
2018-09-11T14:15:12.995Z,99615.70
2018-09-11T14:17:40.220Z,99620.34
2018-09-11T14:20:07.739Z,99619.48
2018-09-11T14:22:35.352Z,99607.54
2018-09-11T14:25:02.537Z,99611.24
2018-09-11T14:27:30.166Z,99600.61
2018-09-11T14:29:57.307Z,99603.11
2018-09-11T14:32:24.561Z,99601.05
2018-09-11T14:34:51.786Z,99605.05
2018-09-11T14:37:19.050Z,99600.93
2018-09-11T14:39:46.305Z,99598.55
2018-09-11T14:42:13.638Z,99592.34
2018-09-11T14:44:41.230Z,99585.58
2018-09-11T14:47:08.423Z,99584.59
2018-09-11T14:49:35.692Z,99589.97
2018-09-11T14:52:02.836Z,99577.56
2018-09-11T14:54:30.811Z,99575.12
2018-09-11T14:56:58.729Z,99584.53
2018-09-11T14:59:26.075Z,99576.73
2018-09-11T15:01:54.313Z,99586.89
2018-09-11T15:04:21.618Z,99570.57
2018-09-11T15:06:49.015Z,99569.26
2018-09-11T15:09:16.277Z,99546.99
2018-09-11T15:11:43.492Z,99565.39
2018-09-11T15:14:12.051Z,99567.97
2018-09-11T15:16:39.246Z,99565.04
2018-09-11T15:19:07.176Z,99560.94
2018-09-11T15:21:34.582Z,99559.56
2018-09-11T15:24:01.756Z,99559.34
2018-09-11T15:26:29.190Z,99550.95
2018-09-11T15:28:57.227Z,99549.91
2018-09-11T15:31:24.555Z,99548.78
2018-09-11T15:33:52.268Z,99547.05
2018-09-11T15:36:19.888Z,99546.67
2018-09-11T15:38:47.132Z,99547.42
2018-09-11T15:41:14.389Z,99541.73
2018-09-11T15:43:41.791Z,99548.28
2018-09-11T15:46:10.326Z,99545.17
2018-09-11T15:48:37.559Z,99530.81
2018-09-11T15:51:05.265Z,99538.27
2018-09-11T15:53:32.975Z,99536.91
2018-09-11T15:56:00.351Z,99544.25
2018-09-11T15:58:28.048Z,99536.06
2018-09-11T16:00:55.348Z,99542.88
2018-09-11T16:03:22.947Z,99536.02
2018-09-11T16:05:50.907Z,99538.25
2018-09-11T16:08:18.373Z,99532.09
2018-09-11T16:10:45.721Z,99525.52
2018-09-11T16:13:13.096Z,99523.30
2018-09-11T16:15:40.687Z,99527.38
2018-09-11T16:18:08.212Z,99531.11
2018-09-11T16:20:35.977Z,99538.34
2018-09-11T16:23:03.351Z,99523.81
2018-09-11T16:25:30.636Z,99518.78
2018-09-11T16:27:58.660Z,99516.07
2018-09-11T16:30:26.162Z,99522.88
2018-09-11T16:32:53.733Z,99517.57
2018-09-11T16:35:21.032Z,99512.31
2018-09-11T16:37:48.286Z,99520.16
2018-09-11T16:40:16.022Z,99515.12
2018-09-11T16:42:43.588Z,99509.70
2018-09-11T16:45:10.834Z,99513.03
2018-09-11T16:47:38.757Z,99511.09
2018-09-11T16:52:53.199Z,99512.77
2018-09-11T16:55:20.812Z,99514.20
2018-09-11T16:57:48.084Z,99514.78
2018-09-11T17:00:15.411Z,99511.16
2018-09-11T17:02:42.675Z,99513.30
2018-09-11T17:05:09.950Z,99510.27
2018-09-11T17:07:37.278Z,99531.59
2018-09-11T17:10:04.883Z,99510.04
2018-09-11T17:12:32.881Z,99089.77
2018-09-11T17:15:01.395Z,99513.01
2018-09-11T17:17:28.819Z,99509.25
2018-09-11T17:19:56.132Z,99508.67
2018-09-11T17:22:23.397Z,99511.16
2018-09-11T17:24:50.969Z,99509.65
2018-09-11T17:27:18.446Z,99504.25
2018-09-11T17:29:45.636Z,99510.65
2018-09-11T17:32:13.429Z,99513.88
2018-09-11T17:34:40.656Z,99510.02
2018-09-11T17:37:08.082Z,99507.40
2018-09-11T17:39:35.422Z,99501.95
2018-09-11T17:42:03.052Z,99502.77
2018-09-11T17:44:30.412Z,99504.08
2018-09-11T17:46:57.672Z,99502.25
2018-09-11T17:49:24.949Z,99503.46
2018-09-11T17:51:52.218Z,99504.81
2018-09-11T17:54:19.575Z,99499.86
2018-09-11T17:56:47.396Z,99513.27
2018-09-11T17:59:14.840Z,99512.75
2018-09-11T18:01:42.107Z,99516.66
2018-09-11T18:04:09.374Z,99517.34
2018-09-11T18:06:36.579Z,99522.04
2018-09-11T18:09:06.100Z,99524.25
2018-09-11T18:11:33.991Z,99514.06
2018-09-11T18:14:02.251Z,99525.11
2018-09-11T18:16:29.679Z,99519.53
2018-09-11T18:18:56.997Z,99517.55
2018-09-11T18:21:24.964Z,99525.97
2018-09-11T18:23:52.261Z,99525.67
2018-09-11T18:26:19.496Z,99525.81
2018-09-11T18:28:46.965Z,99531.10
2018-09-11T18:31:14.254Z,99530.01
2018-09-11T18:33:41.812Z,99524.95
2018-09-11T18:36:09.478Z,99526.67
2018-09-11T18:38:37.241Z,99524.22
2018-09-11T18:41:04.593Z,99526.00
2018-09-11T18:43:31.955Z,99533.45
2018-09-11T18:45:59.456Z,99536.64
2018-09-11T18:48:26.845Z,99545.27
2018-09-11T18:50:55.742Z,99541.70
2018-09-11T18:53:23.402Z,99543.91
2018-09-11T18:55:51.412Z,99547.09
2018-09-11T18:58:19.034Z,99544.27
2018-09-11T19:00:46.859Z,99549.33
2018-09-11T19:03:15.048Z,99550.59
2018-09-11T19:05:42.484Z,99563.60
2018-09-11T19:08:10.435Z,99566.03
2018-09-11T19:10:38.648Z,99568.97
2018-09-11T19:13:07.015Z,99570.20
2018-09-11T19:15:34.523Z,99575.41
2018-09-11T19:18:02.128Z,99581.82
2018-09-11T19:20:29.504Z,99577.20
2018-09-11T19:22:56.700Z,99568.68
2018-09-11T19:25:23.963Z,99566.31
2018-09-11T19:27:51.251Z,99562.83
2018-09-11T19:30:18.507Z,99566.13
2018-09-11T19:32:45.719Z,99562.19
2018-09-11T19:35:12.983Z,99563.41
2018-09-11T19:37:40.184Z,99567.13
2018-09-11T19:40:07.796Z,99576.70
2018-09-11T19:42:35.070Z,99571.96
2018-09-11T19:45:02.382Z,99567.67
2018-09-11T19:47:29.671Z,99566.41
2018-09-11T19:49:56.997Z,99563.09
2018-09-11T19:52:24.200Z,99566.17
2018-09-11T19:54:51.522Z,99570.17
2018-09-11T19:57:18.835Z,99568.84
2018-09-11T19:59:47.029Z,99572.75
2018-09-11T20:02:14.218Z,99577.36
2018-09-11T20:04:42.444Z,99575.45
2018-09-11T20:07:09.786Z,99571.05
2018-09-11T20:09:37.015Z,99572.75
2018-09-11T20:12:04.305Z,99571.19
2018-09-11T20:14:31.595Z,99574.45
2018-09-11T20:16:58.912Z,99577.78
2018-09-11T20:19:26.262Z,99575.09
2018-09-11T20:21:54.275Z,99576.44
2018-09-11T20:24:22.069Z,99583.88
2018-09-11T20:26:50.246Z,99585.91
2018-09-11T20:29:17.496Z,99589.97
2018-09-11T20:31:44.750Z,99589.41
2018-09-11T20:34:11.949Z,99592.81
2018-09-11T20:36:41.379Z,99592.14
2018-09-11T20:39:09.955Z,99593.88
2018-09-11T20:41:37.300Z,99589.91
2018-09-11T20:44:04.619Z,99591.55
2018-09-11T20:46:31.851Z,99596.47
2018-09-11T20:48:59.067Z,99596.22
2018-09-11T20:51:26.302Z,99595.97
2018-09-11T20:53:54.215Z,99588.17
2018-09-11T20:56:21.366Z,99557.18
2018-09-11T20:58:48.559Z,99586.95
2018-09-11T21:01:15.738Z,99592.80
2018-09-11T21:03:43.014Z,99595.74
2018-09-11T21:06:10.758Z,99591.36
2018-09-11T21:08:38.005Z,99597.16
2018-09-11T21:11:05.387Z,99592.72
2018-09-11T21:13:32.780Z,99592.34
2018-09-11T21:15:59.966Z,99597.61
2018-09-11T21:18:27.579Z,99595.16
2018-09-11T21:20:54.776Z,99594.56
2018-09-11T21:23:21.966Z,99597.34
2018-09-11T21:25:49.110Z,99602.44
2018-09-11T21:28:16.351Z,99600.10
2018-09-11T21:30:43.624Z,99595.06
2018-09-11T21:33:11.040Z,99595.31
2018-09-11T21:35:38.225Z,99594.02
2018-09-11T21:38:06.506Z,99599.01
2018-09-11T21:40:33.757Z,99596.10
2018-09-11T21:43:00.938Z,99599.66
2018-09-11T21:45:28.309Z,99602.86
2018-09-11T21:47:55.624Z,99602.31
2018-09-11T21:50:22.860Z,99603.17
2018-09-11T21:52:50.034Z,99608.14
2018-09-11T21:55:17.239Z,99606.86
2018-09-11T21:57:44.352Z,99539.28
2018-09-11T22:00:12.625Z,99607.45
2018-09-11T22:02:39.690Z,99601.83
2018-09-11T22:05:07.249Z,99601.42
2018-09-11T22:07:34.514Z,99602.05
2018-09-11T22:10:01.736Z,99599.82
2018-09-11T22:12:29.317Z,99598.13
2018-09-11T22:14:56.617Z,99598.48
2018-09-11T22:17:23.846Z,99599.51
2018-09-11T22:19:51.710Z,99602.98
2018-09-11T22:22:18.857Z,99594.73
2018-09-11T22:24:46.066Z,99602.49
2018-09-11T22:27:13.571Z,99601.23
2018-09-11T22:29:40.734Z,99597.20
2018-09-11T22:32:08.107Z,99599.98
2018-09-11T22:34:35.286Z,99597.23
2018-09-11T22:37:02.566Z,99597.87
2018-09-11T22:39:29.817Z,99596.54
2018-09-11T22:41:57.095Z,99592.81
2018-09-11T22:44:24.916Z,99596.66
2018-09-11T22:46:52.228Z,99592.16
2018-09-11T22:49:19.519Z,99594.52
2018-09-11T22:51:46.717Z,99590.64
2018-09-11T22:54:13.935Z,99597.13
2018-09-11T22:56:41.234Z,99556.22
2018-09-11T22:59:09.090Z,99589.87
2018-09-11T23:01:36.321Z,99589.91
2018-09-11T23:04:03.493Z,99586.12
2018-09-11T23:06:30.742Z,99588.07
2018-09-11T23:08:57.928Z,99593.08
2018-09-11T23:11:25.085Z,99591.59
2018-09-11T23:13:52.678Z,99590.59
2018-09-11T23:16:19.833Z,99585.67
2018-09-11T23:18:46.996Z,99588.16
2018-09-11T23:21:14.161Z,99592.00
2018-09-11T23:23:41.388Z,99587.03
2018-09-11T23:26:08.884Z,99586.65
2018-09-11T23:28:36.156Z,99581.64
2018-09-11T23:31:03.341Z,99579.08
2018-09-11T23:33:31.545Z,99577.06
2018-09-11T23:35:58.748Z,99575.53
2018-09-11T23:38:25.905Z,99579.58
2018-09-11T23:40:53.122Z,99568.33
2018-09-11T23:43:20.367Z,99569.36
2018-09-11T23:45:47.591Z,99569.70
2018-09-11T23:48:14.905Z,99564.85
2018-09-11T23:50:42.085Z,99566.52
2018-09-11T23:53:09.349Z,99560.41
2018-09-11T23:55:36.712Z,99560.11
2018-09-11T23:58:03.954Z,99563.92
